Time;durP1;ratioP1;P1;durP2;ratioP2;P2;SDS_P1;SDS_P2;PMS_P1;PMS_P2;Temp;Humidity;BMP_temperature;BMP_pressure;BME280_temperature;BME280_humidity;BME280_pressure;Samples;Min_cycle;Max_cycle;Signal;HPM_P1;HPM_P2
2023/12/09 00:01:02;;;;;;;34.70;24.37;;;;;;;3.65;66.64;100325.00;4453099;32;34244;-80
2023/12/09 00:03:34;;;;;;;34.90;24.42;;;;;;;3.86;66.12;100319.94;4453566;32;34597;-81
2023/12/09 00:06:04;;;;;;;31.70;24.25;;;;;;;3.80;66.27;100322.75;4439767;32;33695;-80
2023/12/09 00:08:33;;;;;;;30.33;22.13;;;;;;;3.83;66.28;100320.03;4453609;32;33801;-80
2023/12/09 00:11:02;;;;;;;37.05;27.37;;;;;;;3.91;65.95;100323.25;4452531;32;34945;-80
2023/12/09 00:13:33;;;;;;;33.28;24.63;;;;;;;4.19;64.19;100325.72;4452558;32;33855;-79
2023/12/09 00:16:03;;;;;;;36.03;25.33;;;;;;;4.05;64.80;100328.00;4450395;32;34149;-79
2023/12/09 00:18:38;;;;;;;36.58;26.75;;;;;;;3.92;65.29;100324.97;4452764;32;34292;-80
2023/12/09 00:21:07;;;;;;;34.17;25.40;;;;;;;3.88;65.61;100326.84;4452750;32;48849;-80
2023/12/09 00:23:37;;;;;;;33.72;24.67;;;;;;;3.69;66.32;100321.38;4452641;32;34339;-80
2023/12/09 00:26:16;;;;;;;38.00;23.70;;;;;;;3.85;65.99;100333.97;4452612;32;33562;-80
2023/12/09 00:28:47;;;;;;;46.25;30.52;;;;;;;3.83;65.85;100323.50;4452546;32;35047;-80
2023/12/09 00:31:16;;;;;;;60.35;34.33;;;;;;;4.16;64.68;100316.22;4452479;32;33983;-80
2023/12/09 00:33:46;;;;;;;57.30;38.40;;;;;;;4.16;64.27;100331.97;4452281;32;33987;-80
2023/12/09 00:36:15;;;;;;;40.65;28.60;;;;;;;3.94;65.00;100321.38;4450635;32;33293;-80
2023/12/09 00:38:44;;;;;;;36.22;24.37;;;;;;;4.07;64.92;100324.41;4438269;32;34232;-80
2023/12/09 00:41:14;;;;;;;39.45;26.00;;;;;;;3.86;65.73;100330.41;4436890;32;35718;-80
2023/12/09 00:43:43;;;;;;;33.28;25.37;;;;;;;3.98;65.62;100323.88;4437333;32;34220;-80
2023/12/09 00:46:13;;;;;;;37.38;25.27;;;;;;;3.95;65.84;100316.97;4437068;32;33388;-80
2023/12/09 00:48:42;;;;;;;37.67;25.37;;;;;;;3.95;65.63;100320.44;4436859;32;34653;-79
2023/12/09 00:51:15;;;;;;;29.67;22.90;;;;;;;3.81;66.16;100314.84;4436981;32;34463;-80
2023/12/09 00:53:44;;;;;;;31.90;23.23;;;;;;;4.07;65.67;100327.03;4437137;32;34491;-80
2023/12/09 00:56:14;;;;;;;34.08;23.87;;;;;;;4.18;65.27;100324.03;4448710;32;34926;-80
2023/12/09 00:59:00;;;;;;;32.53;23.75;;;;;;;4.08;65.40;100320.91;4452048;32;34651;-80
2023/12/09 01:01:30;;;;;;;34.90;23.98;;;;;;;4.02;65.62;100326.34;4452212;32;34512;-80
2023/12/09 01:04:00;;;;;;;34.60;25.73;;;;;;;4.04;65.67;100332.41;4452325;32;34136;-80
2023/12/09 01:06:32;;;;;;;35.55;26.05;;;;;;;4.16;65.15;100329.34;4452519;32;33452;-80
2023/12/09 01:09:01;;;;;;;36.90;25.23;;;;;;;4.07;65.46;100320.94;4452330;32;34667;-80
2023/12/09 01:11:32;;;;;;;37.38;25.20;;;;;;;3.91;65.77;100323.25;4451955;32;33726;-80
2023/12/09 01:14:02;;;;;;;34.10;23.17;;;;;;;4.35;64.42;100320.78;4452052;32;33964;-80
2023/12/09 01:16:31;;;;;;;39.35;26.98;;;;;;;4.13;64.95;100329.44;4450283;32;33146;-80
2023/12/09 01:19:00;;;;;;;36.97;26.15;;;;;;;4.17;64.82;100328.41;4451917;32;33552;-80
2023/12/09 01:21:29;;;;;;;37.85;24.58;;;;;;;4.04;65.20;100315.78;4452373;32;34639;-80
2023/12/09 01:24:01;;;;;;;36.83;24.87;;;;;;;3.89;65.73;100317.22;4452149;32;34801;-80
2023/12/09 01:26:30;;;;;;;40.70;25.88;;;;;;;3.77;66.21;100315.88;4452058;32;33672;-80
2023/12/09 01:29:02;;;;;;;33.92;24.02;;;;;;;3.88;66.02;100313.75;4451847;32;33924;-80
2023/12/09 01:31:35;;;;;;;37.00;26.67;;;;;;;3.87;65.95;100313.78;4451752;32;33563;-80
2023/12/09 01:34:05;;;;;;;39.63;27.20;;;;;;;3.75;66.24;100315.06;4451873;32;34111;-80
2023/12/09 01:36:34;;;;;;;34.67;24.92;;;;;;;4.02;65.74;100317.63;4450474;32;35633;-80
2023/12/09 01:39:05;;;;;;;39.85;28.80;;;;;;;3.91;65.57;100313.59;4451524;32;33763;-80
2023/12/09 01:41:35;;;;;;;47.25;29.37;;;;;;;3.88;65.91;100315.47;4451986;32;33703;-80
2023/12/09 01:44:06;;;;;;;41.63;27.77;;;;;;;4.08;65.23;100310.41;4451850;32;34619;-80
2023/12/09 01:46:36;;;;;;;44.35;27.27;;;;;;;4.00;65.29;100312.44;4452868;32;33613;-79
2023/12/09 01:49:05;;;;;;;41.83;28.48;;;;;;;4.08;65.15;100313.03;4453584;32;35000;-79
2023/12/09 01:51:38;;;;;;;41.92;26.52;;;;;;;3.88;65.35;100305.00;4453766;32;33965;-80
2023/12/09 01:54:10;;;;;;;41.42;27.45;;;;;;;3.66;66.11;100310.12;4453229;32;48393;-80
2023/12/09 01:56:41;;;;;;;39.88;27.73;;;;;;;3.97;65.65;100312.56;4451913;32;33229;-80
2023/12/09 01:59:10;;;;;;;44.15;27.20;;;;;;;3.95;65.50;100314.34;4453617;32;33865;-80
2023/12/09 02:01:39;;;;;;;33.58;26.17;;;;;;;3.89;65.88;100317.22;4454381;32;34877;-80
2023/12/09 02:04:09;;;;;;;61.15;33.63;;;;;;;3.99;65.75;100315.09;4454473;32;33627;-80
2023/12/09 02:06:39;;;;;;;48.58;29.33;;;;;;;3.98;65.60;100313.41;4455381;32;33895;-80
2023/12/09 02:09:09;;;;;;;38.53;25.05;;;;;;;3.94;65.89;100316.13;4454738;32;48910;-80
2023/12/09 02:11:49;;;;;;;38.88;24.87;;;;;;;4.02;65.76;100321.09;4453496;32;34719;-80
2023/12/09 02:14:29;;;;;;;44.03;27.37;;;;;;;4.01;65.91;100314.16;4451434;32;33624;-80
2023/12/09 02:17:04;;;;;;;33.72;24.83;;;;;;;4.07;65.65;100318.31;4454083;32;33973;-80
2023/12/09 02:19:34;;;;;;;34.42;24.83;;;;;;;4.14;65.45;100310.16;4453030;32;34210;-80
2023/12/09 02:22:06;;;;;;;35.42;25.05;;;;;;;3.99;65.83;100309.84;4453657;32;34646;-80
2023/12/09 02:24:37;;;;;;;35.97;26.52;;;;;;;3.82;66.40;100308.69;4453957;32;34450;-80
2023/12/09 02:27:11;;;;;;;34.30;24.25;;;;;;;4.07;65.70;100311.28;4453052;32;49042;-80
2023/12/09 02:29:49;;;;;;;36.42;23.17;;;;;;;3.88;66.27;100311.13;4453660;32;34742;-80
2023/12/09 02:32:23;;;;;;;35.53;24.75;;;;;;;3.81;66.50;100312.22;4453533;32;33471;-80
2023/12/09 02:34:54;;;;;;;39.67;27.48;;;;;;;3.82;66.43;100310.47;4451071;32;33658;-80
2023/12/09 02:37:28;;;;;;;38.15;25.05;;;;;;;4.01;65.95;100308.06;4453919;32;34354;-80
2023/12/09 02:40:00;;;;;;;37.45;25.60;;;;;;;3.95;65.98;100303.88;4453276;32;33781;-80
2023/12/09 02:42:30;;;;;;;36.25;23.67;;;;;;;3.88;66.25;100300.63;4453530;32;33965;-80
2023/12/09 02:45:00;;;;;;;36.58;25.30;;;;;;;3.95;66.20;100298.63;4453384;32;33965;-80
2023/12/09 02:47:30;;;;;;;37.85;26.17;;;;;;;3.90;66.22;100297.94;4453547;32;33913;-80
2023/12/09 02:49:59;;;;;;;39.33;26.75;;;;;;;3.76;66.79;100305.41;4452985;32;34578;-80
2023/12/09 02:52:30;;;;;;;36.88;25.67;;;;;;;3.85;66.61;100307.75;4453249;32;34948;-80
2023/12/09 02:55:01;;;;;;;36.38;24.75;;;;;;;3.94;66.28;100310.88;4451408;32;33791;-80
2023/12/09 02:57:30;;;;;;;34.45;24.52;;;;;;;3.97;66.14;100309.06;4453331;32;33693;-81
2023/12/09 03:00:05;;;;;;;39.07;25.27;;;;;;;3.84;66.62;100311.25;4453036;32;33689;-81
2023/12/09 03:02:34;;;;;;;35.03;23.35;;;;;;;3.94;66.38;100310.03;4453431;32;34055;-80
2023/12/09 03:05:04;;;;;;;37.50;25.23;;;;;;;3.94;66.29;100313.50;4453279;32;34138;-80
2023/12/09 03:07:34;;;;;;;35.45;25.73;;;;;;;4.01;66.23;100311.53;4453112;32;33447;-80
2023/12/09 03:10:05;;;;;;;37.10;25.05;;;;;;;4.51;63.98;100311.41;4452921;32;34521;-80
2023/12/09 03:12:34;;;;;;;36.75;25.23;;;;;;;4.16;65.01;100318.84;4453433;32;34431;-80
2023/12/09 03:15:06;;;;;;;37.47;24.83;;;;;;;4.05;65.43;100325.37;4450951;32;33811;-80
2023/12/09 03:17:37;;;;;;;38.13;26.47;;;;;;;4.03;65.58;100325.44;4453415;32;33301;-81
2023/12/09 03:20:08;;;;;;;37.42;24.23;;;;;;;3.97;65.63;100325.66;4452962;32;34369;-80
2023/12/09 03:22:37;;;;;;;39.03;26.10;;;;;;;4.00;65.73;100327.28;4453133;32;35130;-80
2023/12/09 03:25:09;;;;;;;38.10;24.37;;;;;;;3.92;66.01;100328.44;4453050;32;34530;-80
2023/12/09 03:27:40;;;;;;;36.85;25.90;;;;;;;3.92;66.06;100330.22;4447670;32;34754;-80
2023/12/09 03:30:10;;;;;;;36.13;24.95;;;;;;;3.85;66.28;100326.09;4452374;32;48798;-80
2023/12/09 03:32:40;;;;;;;36.10;25.40;;;;;;;3.94;66.22;100331.00;4452947;32;34197;-80
2023/12/09 03:35:12;;;;;;;31.73;23.45;;;;;;;3.90;66.32;100330.25;4451013;32;33795;-80
2023/12/09 03:37:41;;;;;;;32.90;22.58;;;;;;;3.79;66.74;100335.00;4453159;32;35297;-80
2023/12/09 03:40:13;;;;;;;36.92;25.62;;;;;;;3.97;66.30;100324.81;4452400;32;33841;-80
2023/12/09 03:42:42;;;;;;;33.50;24.90;;;;;;;4.07;66.09;100336.66;4452955;32;34162;-79
2023/12/09 03:45:12;;;;;;;35.28;24.37;;;;;;;3.93;66.48;100329.31;4453356;32;34749;-80
2023/12/09 03:47:41;;;;;;;35.70;24.60;;;;;;;4.01;66.28;100335.13;4452862;32;33790;-80
2023/12/09 03:50:10;;;;;;;36.30;24.80;;;;;;;4.00;66.38;100341.28;4452376;32;34086;-80
2023/12/09 03:52:40;;;;;;;38.58;25.17;;;;;;;4.06;66.26;100341.06;4438605;32;33104;-80
2023/12/09 03:55:09;;;;;;;36.53;24.98;;;;;;;4.10;66.23;100347.06;4450687;32;33924;-80
2023/12/09 03:57:42;;;;;;;41.63;26.02;;;;;;;4.03;66.38;100335.91;4453188;32;33311;-80
2023/12/09 04:00:12;;;;;;;37.08;25.85;;;;;;;3.97;66.57;100344.00;4452672;32;48681;-80
2023/12/09 04:02:43;;;;;;;39.63;27.08;;;;;;;3.91;66.75;100346.84;4452757;32;33833;-80
2023/12/09 04:05:12;;;;;;;37.83;24.70;;;;;;;4.03;66.32;100346.41;4453083;32;34060;-80
2023/12/09 04:07:41;;;;;;;39.20;27.20;;;;;;;3.97;66.47;100340.53;4452869;32;33630;-80
2023/12/09 04:10:10;;;;;;;40.40;27.25;;;;;;;4.07;66.34;100344.53;4451311;32;33915;-79
2023/12/09 04:12:41;;;;;;;34.40;26.08;;;;;;;4.13;66.05;100342.56;4453049;32;34056;-80
2023/12/09 04:15:12;;;;;;;35.03;25.45;;;;;;;4.18;65.96;100348.47;4450698;32;49334;-80
2023/12/09 04:17:42;;;;;;;38.95;26.35;;;;;;;3.97;66.59;100349.25;4452937;32;33160;-80
2023/12/09 04:20:12;;;;;;;34.65;25.55;;;;;;;4.05;66.29;100341.97;4452459;32;33851;-80
2023/12/09 04:22:41;;;;;;;35.55;25.90;;;;;;;4.03;66.38;100335.06;4439526;32;32504;-79
2023/12/09 04:25:11;;;;;;;38.28;25.60;;;;;;;4.11;66.04;100344.38;4453301;32;34163;-80
2023/12/09 04:27:42;;;;;;;35.83;24.27;;;;;;;4.01;66.33;100342.16;4454072;32;34096;-80
2023/12/09 04:30:13;;;;;;;35.40;26.10;;;;;;;4.05;66.00;100341.97;4453097;32;49649;-79
2023/12/09 04:32:42;;;;;;;35.65;24.85;;;;;;;3.84;66.60;100342.72;4453840;32;33720;-80
2023/12/09 04:35:12;;;;;;;35.42;24.30;;;;;;;4.03;66.07;100341.16;4437024;32;32126;-80
2023/12/09 04:37:41;;;;;;;30.75;21.75;;;;;;;4.01;66.18;100339.53;4453498;32;33845;-81
2023/12/09 04:40:11;;;;;;;39.90;26.40;;;;;;;4.07;65.94;100350.62;4453201;32;34178;-80
2023/12/09 04:42:47;;;;;;;34.85;24.75;;;;;;;4.17;65.67;100348.56;4453676;32;34214;-79
2023/12/09 04:45:16;;;;;;;35.97;24.10;;;;;;;3.99;66.25;100349.19;4453796;32;34020;-80
2023/12/09 04:47:46;;;;;;;32.83;24.90;;;;;;;4.27;65.24;100346.44;4453185;32;34939;-80
2023/12/09 04:50:15;;;;;;;37.20;26.55;;;;;;;4.10;65.48;100341.81;4452061;32;33972;-80
2023/12/09 04:52:44;;;;;;;37.97;25.83;;;;;;;3.91;66.09;100344.22;4452336;32;33943;-80
2023/12/09 04:55:13;;;;;;;38.90;24.95;;;;;;;3.98;65.87;100345.72;4450399;32;33739;-80
2023/12/09 04:57:42;;;;;;;37.55;26.08;;;;;;;3.97;66.01;100340.53;4452520;32;34812;-80
2023/12/09 05:00:16;;;;;;;39.55;25.95;;;;;;;3.91;66.26;100352.94;4452518;32;34087;-80
2023/12/09 05:02:46;;;;;;;37.20;25.92;;;;;;;4.08;65.92;100352.37;4452691;32;33912;-80
2023/12/09 05:05:15;;;;;;;32.78;23.00;;;;;;;4.10;65.88;100352.28;4452424;32;33603;-80
2023/12/09 05:07:44;;;;;;;40.10;26.87;;;;;;;4.07;66.10;100347.16;4452321;32;34320;-80
2023/12/09 05:10:14;;;;;;;40.12;26.00;;;;;;;4.15;65.84;100342.50;4452123;32;34790;-80
2023/12/09 05:12:43;;;;;;;37.60;24.83;;;;;;;4.10;66.03;100352.28;4452348;32;35474;-80
2023/12/09 05:15:15;;;;;;;36.15;24.73;;;;;;;4.09;66.00;100359.31;4450464;32;34430;-80
2023/12/09 05:17:44;;;;;;;40.17;25.90;;;;;;;4.11;66.02;100348.75;4452165;32;33913;-80
2023/12/09 05:20:14;;;;;;;36.40;24.77;;;;;;;4.15;65.97;100345.13;4452320;32;34676;-80
2023/12/09 05:22:44;;;;;;;34.10;26.17;;;;;;;4.07;66.12;100349.78;4457460;32;34612;-80
2023/12/09 05:25:14;;;;;;;37.80;25.90;;;;;;;3.98;66.62;100348.34;4457361;32;35011;-80
2023/12/09 05:27:43;;;;;;;41.97;25.85;;;;;;;4.18;65.98;100343.25;4457307;32;33619;-80
2023/12/09 05:30:15;;;;;;;37.38;26.48;;;;;;;4.08;66.17;100347.12;4457341;32;34314;-80
2023/12/09 05:32:46;;;;;;;40.55;26.95;;;;;;;4.16;65.89;100357.34;4457378;32;33990;-80
2023/12/09 05:35:15;;;;;;;36.85;26.33;;;;;;;4.03;66.16;100358.66;4455250;32;34349;-80
2023/12/09 05:37:44;;;;;;;34.20;23.80;;;;;;;4.39;64.57;100364.34;4457429;32;33804;-80
2023/12/09 05:40:14;;;;;;;35.95;25.48;;;;;;;4.42;64.38;100364.25;4456850;32;34036;-80
2023/12/09 05:42:43;;;;;;;39.03;26.77;;;;;;;4.37;64.23;100371.44;4456970;32;35308;-80
2023/12/09 05:45:12;;;;;;;35.03;26.25;;;;;;;4.11;65.07;100370.59;4457403;32;34788;-81
2023/12/09 05:47:42;;;;;;;35.85;26.80;;;;;;;4.05;65.41;100369.97;4455774;32;33683;-78
2023/12/09 05:50:12;;;;;;;43.37;26.43;;;;;;;3.89;66.14;100373.13;4455303;32;34611;-78
2023/12/09 05:52:42;;;;;;;36.20;25.08;;;;;;;3.98;65.80;100369.31;4455754;32;34869;-78
2023/12/09 05:55:15;;;;;;;41.33;28.42;;;;;;;4.11;65.42;100359.25;4453540;32;34546;-78
2023/12/09 05:57:45;;;;;;;38.10;26.37;;;;;;;4.02;65.52;100356.97;4455801;32;33087;-78
2023/12/09 06:00:15;;;;;;;38.67;26.27;;;;;;;3.69;66.42;100355.44;4455798;32;33949;-78
2023/12/09 06:02:46;;;;;;;37.17;25.73;;;;;;;3.78;66.19;100348.19;4455619;32;34098;-78
2023/12/09 06:05:15;;;;;;;39.10;26.77;;;;;;;3.82;66.29;100355.87;4455580;32;35298;-78
2023/12/09 06:07:45;;;;;;;36.70;25.92;;;;;;;4.21;64.74;100358.03;4455778;32;34104;-78
2023/12/09 06:10:15;;;;;;;39.67;30.05;;;;;;;3.15;67.70;100361.56;4455141;32;34100;-78
2023/12/09 06:12:45;;;;;;;39.67;27.62;;;;;;;3.43;67.25;100355.44;4455534;32;33954;-77
2023/12/09 06:15:14;;;;;;;38.50;27.08;;;;;;;3.57;67.18;100361.09;4453858;32;34358;-78
2023/12/09 06:17:43;;;;;;;40.45;30.12;;;;;;;3.66;67.01;100359.94;4455534;32;33620;-78
2023/12/09 06:20:14;;;;;;;42.33;29.35;;;;;;;3.85;66.37;100360.16;4454834;32;34045;-78
2023/12/09 06:22:43;;;;;;;39.90;29.73;;;;;;;3.88;66.10;100367.91;4455475;32;34104;-78
2023/12/09 06:25:13;;;;;;;39.85;27.15;;;;;;;3.89;66.28;100361.78;4455349;32;33960;-78
2023/12/09 06:27:42;;;;;;;41.88;28.00;;;;;;;3.85;66.43;100360.16;4455100;32;33597;-77
2023/12/09 06:30:14;;;;;;;44.95;31.80;;;;;;;3.94;66.29;100365.09;4455167;32;33735;-77
2023/12/09 06:32:44;;;;;;;51.70;36.58;;;;;;;3.80;66.86;100356.81;4452988;32;34253;-78
2023/12/09 06:35:15;;;;;;;49.35;36.08;;;;;;;3.92;66.47;100354.66;4450399;32;33913;-78
2023/12/09 06:37:44;;;;;;;53.85;36.70;;;;;;;3.79;66.81;100360.38;4452766;32;33648;-78
2023/12/09 06:40:14;;;;;;;48.50;32.25;;;;;;;3.66;67.20;100363.41;4452449;32;35192;-79
2023/12/09 06:42:43;;;;;;;50.47;33.08;;;;;;;3.74;66.87;100367.53;4452459;32;34686;-78
2023/12/09 06:45:12;;;;;;;48.15;34.08;;;;;;;3.80;66.51;100367.31;4452677;32;33502;-79
2023/12/09 06:47:43;;;;;;;49.80;35.20;;;;;;;3.98;66.11;100369.31;4452742;32;34804;-78
2023/12/09 06:50:13;;;;;;;48.25;32.33;;;;;;;4.03;65.69;100363.91;4452139;32;34721;-78
2023/12/09 06:52:45;;;;;;;47.45;32.40;;;;;;;4.12;65.34;100361.84;4452039;32;33670;-79
2023/12/09 06:55:15;;;;;;;67.78;39.42;;;;;;;4.07;65.37;100371.59;4450753;32;34211;-79
2023/12/09 06:57:45;;;;;;;58.70;35.20;;;;;;;3.97;65.66;100357.12;4452612;32;33498;-79
2023/12/09 07:00:15;;;;;;;46.58;32.25;;;;;;;4.02;65.72;100364.81;4452118;32;34082;-79
2023/12/09 07:02:45;;;;;;;51.10;31.80;;;;;;;4.07;65.72;100373.38;4452351;32;34099;-79
2023/12/09 07:05:27;;;;;;;50.20;31.75;;;;;;;4.11;65.67;100369.75;4452226;32;33737;-78
2023/12/09 07:07:58;;;;;;;50.83;33.00;;;;;;;4.06;65.92;100375.16;4452554;32;33105;-79
2023/12/09 07:10:27;;;;;;;56.60;35.78;;;;;;;4.11;65.87;100374.97;4452287;32;33802;-79
2023/12/09 07:12:56;;;;;;;55.20;37.50;;;;;;;4.31;65.19;100372.50;4453006;32;34761;-79
2023/12/09 07:15:26;;;;;;;56.00;36.53;;;;;;;4.15;65.68;100377.44;4451709;32;33841;-80
2023/12/09 07:17:55;;;;;;;51.67;33.72;;;;;;;4.12;65.84;100380.19;4454452;32;33283;-80
2023/12/09 07:20:24;;;;;;;42.75;29.83;;;;;;;4.17;65.64;100380.88;4453594;32;33956;-80
2023/12/09 07:22:53;;;;;;;41.85;28.45;;;;;;;4.10;65.98;100389.00;4454436;32;34007;-80
2023/12/09 07:25:25;;;;;;;38.63;26.52;;;;;;;4.14;65.88;100382.75;4453904;32;34227;-79
2023/12/09 07:27:55;;;;;;;39.45;27.13;;;;;;;4.05;66.02;100385.69;4454543;32;33649;-80
2023/12/09 07:30:24;;;;;;;40.60;28.08;;;;;;;4.12;65.16;100381.97;4453853;32;33976;-80
2023/12/09 07:32:53;;;;;;;43.10;26.83;;;;;;;3.94;65.42;100381.66;4454405;32;33800;-79
2023/12/09 07:35:25;;;;;;;39.17;26.30;;;;;;;4.05;65.24;100388.31;4451834;32;33720;-79
2023/12/09 07:37:55;;;;;;;41.97;28.67;;;;;;;3.99;64.60;100373.63;4439962;32;32092;-80
2023/12/09 07:40:25;;;;;;;38.40;26.42;;;;;;;3.96;64.96;100386.88;4453716;32;34034;-80
2023/12/09 07:42:55;;;;;;;41.05;30.67;;;;;;;3.69;65.73;100384.28;4454066;32;34079;-80
2023/12/09 07:45:24;;;;;;;46.47;30.50;;;;;;;4.08;64.31;100386.47;4453787;32;33956;-80
2023/12/09 07:47:54;;;;;;;40.47;28.02;;;;;;;4.13;63.94;100384.53;4453559;32;33698;-80
2023/12/09 07:50:24;;;;;;;44.33;29.48;;;;;;;3.84;65.25;100397.75;4453389;32;33815;-80
2023/12/09 07:53:00;;;;;;;40.28;27.95;;;;;;;3.86;65.60;100378.47;4439234;32;32798;-80
2023/12/09 07:55:31;;;;;;;;;;;;;;;4.06;65.29;100376.91;4451338;32;34092;-80
2023/12/09 07:58:00;;;;;;;37.25;25.62;;;;;;;3.88;65.57;100374.03;4453641;32;33479;-80
2023/12/09 08:00:31;;;;;;;41.58;27.75;;;;;;;4.01;65.37;100376.22;4452944;32;34341;-80
2023/12/09 08:03:04;;;;;;;38.08;27.48;;;;;;;4.18;65.05;100381.72;4453556;32;34764;-80
2023/12/09 08:05:34;;;;;;;39.42;26.67;;;;;;;4.27;64.83;100384.00;4453513;32;34016;-80
2023/12/09 08:08:04;;;;;;;42.67;30.60;;;;;;;4.31;64.69;100372.50;4453676;32;33417;-80
2023/12/09 08:10:34;;;;;;;37.35;26.55;;;;;;;4.16;64.76;100379.16;4453071;32;34169;-80
2023/12/09 08:13:04;;;;;;;46.85;30.15;;;;;;;4.21;64.65;100371.12;4452757;32;33545;-80
2023/12/09 08:15:34;;;;;;;36.92;27.13;;;;;;;3.75;65.78;100372.72;4452245;32;33888;-80
2023/12/09 08:18:03;;;;;;;45.20;29.75;;;;;;;4.03;65.41;100371.78;4438744;32;34150;-80
2023/12/09 08:20:34;;;;;;;43.80;28.80;;;;;;;4.18;64.87;100371.25;4437847;32;33587;-80
2023/12/09 08:23:04;;;;;;;40.53;28.40;;;;;;;4.15;65.11;100379.22;4438058;32;34765;-80
2023/12/09 08:25:35;;;;;;;40.75;26.15;;;;;;;3.78;66.17;100383.09;4438456;32;34010;-80
2023/12/09 08:28:05;;;;;;;40.15;29.80;;;;;;;4.08;65.59;100380.31;4436954;32;33658;-80
2023/12/09 08:30:34;;;;;;;37.33;28.55;;;;;;;4.08;65.44;100375.06;4437184;32;35713;-80
2023/12/09 08:33:04;;;;;;;42.15;28.33;;;;;;;4.38;64.40;100378.38;4450960;32;33946;-80
2023/12/09 08:35:34;;;;;;;42.13;29.17;;;;;;;4.49;64.07;100376.25;4450985;32;35415;-80
2023/12/09 08:38:05;;;;;;;77.00;44.03;;;;;;;4.46;63.83;100376.34;4438839;32;32427;-80
2023/12/09 08:40:36;;;;;;;66.37;41.65;;;;;;;4.54;63.96;100374.28;4452576;32;34039;-80
2023/12/09 08:43:05;;;;;;;53.00;40.20;;;;;;;4.73;62.20;100379.72;4452660;32;33684;-80
2023/12/09 08:45:34;;;;;;;44.30;33.03;;;;;;;4.71;61.67;100378.06;4453414;32;33497;-80
2023/12/09 08:48:03;;;;;;;34.97;25.98;;;;;;;3.93;63.94;100377.34;4452964;32;34165;-80
2023/12/09 08:50:33;;;;;;;39.85;25.55;;;;;;;3.93;64.29;100381.72;4452641;32;33597;-80
2023/12/09 08:53:02;;;;;;;45.45;31.55;;;;;;;4.50;62.63;100385.81;4452665;32;35057;-80
2023/12/09 08:55:31;;;;;;;48.67;36.85;;;;;;;4.53;62.33;100387.47;4450392;32;34187;-80
2023/12/09 08:58:03;;;;;;;43.08;28.80;;;;;;;4.44;61.97;100383.44;4452612;32;33504;-80
2023/12/09 09:00:32;;;;;;;38.38;28.00;;;;;;;4.26;63.11;100384.09;4437798;32;33557;-80
2023/12/09 09:03:03;;;;;;;41.37;26.40;;;;;;;4.29;62.74;100383.97;4452647;32;34133;-80
2023/12/09 09:05:35;;;;;;;37.65;26.52;;;;;;;4.36;62.71;100391.56;4452535;32;33847;-80
2023/12/09 09:08:05;;;;;;;37.60;26.77;;;;;;;4.49;62.86;100385.87;4437944;32;33172;-80
2023/12/09 09:10:35;;;;;;;40.92;27.75;;;;;;;4.51;62.29;100384.91;4452032;32;33834;-80
2023/12/09 09:13:05;;;;;;;42.38;28.55;;;;;;;4.64;61.81;100386.19;4452853;32;33876;-80
2023/12/09 09:15:35;;;;;;;42.15;28.40;;;;;;;4.30;62.90;100383.06;4451485;32;34270;-80
2023/12/09 09:18:05;;;;;;;41.40;29.10;;;;;;;4.39;63.14;100387.97;4453073;32;33670;-80
2023/12/09 09:20:36;;;;;;;38.03;29.25;;;;;;;4.26;62.93;100384.09;4446769;32;33813;-80
2023/12/09 09:23:05;;;;;;;35.85;27.05;;;;;;;4.57;62.64;100384.69;4452469;32;33874;-80
2023/12/09 09:25:34;;;;;;;42.60;28.45;;;;;;;4.63;62.30;100368.72;4452728;32;34498;-80
2023/12/09 09:28:05;;;;;;;38.28;26.17;;;;;;;4.61;62.55;100372.31;4453365;32;33477;-80
2023/12/09 09:30:34;;;;;;;38.40;27.55;;;;;;;4.73;62.24;100376.25;4431978;32;33794;-80
2023/12/09 09:33:06;;;;;;;43.60;29.73;;;;;;;4.82;62.04;100378.50;4451918;32;34466;-80
2023/12/09 09:35:35;;;;;;;39.15;26.90;;;;;;;4.72;62.35;100369.28;4450754;32;33920;-80
2023/12/09 09:38:05;;;;;;;38.88;28.38;;;;;;;4.17;63.69;100370.38;4452730;32;34301;-80
2023/12/09 09:40:34;;;;;;;42.13;30.92;;;;;;;4.62;62.48;100367.00;4452095;32;33890;-79
2023/12/09 09:43:14;;;;;;;43.00;32.22;;;;;;;4.56;62.29;100369.00;4452049;32;35392;-80
2023/12/09 09:45:45;;;;;;;47.60;34.25;;;;;;;4.53;62.74;100362.09;4452337;32;34135;-79
2023/12/09 09:48:18;;;;;;;44.22;30.95;;;;;;;4.63;62.88;100362.59;4452323;32;34107;-80
2023/12/09 09:50:53;;;;;;;48.67;31.52;;;;;;;4.67;62.75;100358.94;4451931;32;33705;-80
2023/12/09 09:53:33;;;;;;;44.33;29.92;;;;;;;4.63;62.75;100350.34;4452153;32;33927;-80
2023/12/09 09:56:03;;;;;;;46.70;34.65;;;;;;;4.71;62.55;100360.53;4450214;32;34167;-80
2023/12/09 09:58:35;;;;;;;54.78;39.65;;;;;;;4.39;62.88;100344.22;4452319;32;34492;-80
2023/12/09 10:01:05;;;;;;;54.60;39.15;;;;;;;4.43;63.01;100344.97;4451848;32;33980;-80
2023/12/09 10:03:35;;;;;;;51.45;33.78;;;;;;;4.89;61.89;100335.34;4452029;32;34412;-80
2023/12/09 10:06:08;;;;;;;51.35;30.67;;;;;;;4.61;63.10;100340.81;4451646;32;49002;-81
2023/12/09 10:08:39;;;;;;;55.53;36.22;;;;;;;5.24;76.49;100333.13;4452885;32;33072;-81
2023/12/09 10:11:09;;;;;;;84.18;49.15;;;;;;;6.57;76.62;100333.53;4453273;32;34470;-81
2023/12/09 10:13:39;;;;;;;59.45;35.33;;;;;;;6.76;66.90;100333.50;4447451;32;34813;-80
2023/12/09 10:16:09;;;;;;;47.05;35.58;;;;;;;7.44;65.14;100317.09;4452160;32;33846;-80
2023/12/09 10:18:38;;;;;;;52.13;34.00;;;;;;;6.92;56.50;100320.47;4439711;32;33271;-80
2023/12/09 10:21:08;;;;;;;59.58;34.33;;;;;;;7.05;55.20;100318.13;4452888;32;49250;-80
2023/12/09 10:23:38;;;;;;;63.22;37.65;;;;;;;6.42;56.98;100314.94;4447968;32;34371;-80
2023/12/09 10:26:09;;;;;;;51.70;34.05;;;;;;;6.04;58.00;100310.44;4453617;32;34570;-80
2023/12/09 10:28:40;;;;;;;52.17;35.25;;;;;;;5.74;58.81;100312.63;4453205;32;33873;-80
2023/12/09 10:31:10;;;;;;;61.92;40.03;;;;;;;5.02;60.63;100306.84;4453352;32;33727;-80
2023/12/09 10:33:42;;;;;;;76.93;40.67;;;;;;;4.61;62.77;100302.28;4453838;32;34868;-80
2023/12/09 10:36:11;;;;;;;78.77;44.10;;;;;;;4.59;62.94;100300.63;4437042;32;48040;-80
2023/12/09 10:38:44;;;;;;;59.42;38.50;;;;;;;4.76;62.07;100302.63;4453758;32;33660;-80
2023/12/09 10:41:15;;;;;;;48.90;34.50;;;;;;;4.18;63.78;100301.28;4453544;32;33493;-80
2023/12/09 10:43:46;;;;;;;58.67;38.13;;;;;;;4.16;64.09;100299.62;4453653;32;35156;-80
2023/12/09 10:46:15;;;;;;;52.42;36.42;;;;;;;3.91;64.76;100299.66;4453329;32;34168;-80
2023/12/09 10:48:51;;;;;;;69.72;41.88;;;;;;;4.44;63.13;100286.34;4453637;32;33551;-79
2023/12/09 10:51:23;;;;;;;46.67;33.33;;;;;;;4.40;64.09;100279.50;4454031;32;33770;-80
2023/12/09 10:53:52;;;;;;;46.30;30.63;;;;;;;3.96;64.26;100282.00;4453165;32;34451;-80
2023/12/09 10:56:21;;;;;;;56.85;39.75;;;;;;;3.24;66.38;100292.31;4451551;32;34358;-80
2023/12/09 10:58:53;;;;;;;50.60;35.50;;;;;;;3.92;64.85;100296.12;4453835;32;33238;-80
2023/12/09 11:01:24;;;;;;;58.17;44.17;;;;;;;3.74;65.31;100294.16;4453073;32;33823;-80
2023/12/09 11:03:53;;;;;;;70.03;58.50;;;;;;;3.94;64.95;100297.78;4453349;32;34267;-79
2023/12/09 11:06:25;;;;;;;60.60;44.20;;;;;;;3.93;65.05;100296.06;4454615;32;34646;-80
2023/12/09 11:08:55;;;;;;;50.40;36.63;;;;;;;4.27;63.38;100276.47;4454004;32;34596;-80
2023/12/09 11:11:26;;;;;;;58.85;39.58;;;;;;;4.06;64.09;100280.75;4453946;32;34804;-80
2023/12/09 11:13:59;;;;;;;56.20;41.95;;;;;;;4.04;63.99;100274.72;4453580;32;33733;-80
2023/12/09 11:16:29;;;;;;;50.22;34.53;;;;;;;4.09;64.29;100275.41;4451735;32;34026;-80
2023/12/09 11:19:01;;;;;;;53.25;37.38;;;;;;;4.34;63.60;100266.59;4453520;32;34308;-80
2023/12/09 11:21:31;;;;;;;55.33;35.72;;;;;;;4.43;63.26;100272.38;4453683;32;33725;-80
2023/12/09 11:24:00;;;;;;;50.92;36.25;;;;;;;4.51;62.89;100274.69;4453102;32;33779;-80
2023/12/09 11:26:31;;;;;;;52.97;35.40;;;;;;;4.70;62.44;100274.84;4453491;32;33543;-80
2023/12/09 11:29:03;;;;;;;59.13;37.15;;;;;;;4.61;62.68;100273.44;4453654;32;34190;-80
2023/12/09 11:31:36;;;;;;;49.60;33.75;;;;;;;4.58;62.96;100283.19;4452542;32;33857;-80